Time;durP1;ratioP1;P1;durP2;ratioP2;P2;SDS_P1;SDS_P2;PMS_P1;PMS_P2;Temp;Humidity;BMP_temperature;BMP_pressure;BME280_temperature;BME280_humidity;BME280_pressure;Samples;Min_cycle;Max_cycle;Signal;HPM_P1;HPM_P2
2023/12/19 00:00:05;;;;;;;11.95;6.03;;;5.70;99.90;;;;;;5022648;28;20280;-70
2023/12/19 00:02:30;;;;;;;12.75;6.25;;;5.60;99.90;;;;;;5021776;28;20034;-69
2023/12/19 00:04:57;;;;;;;11.25;6.22;;;5.60;99.90;;;;;;5023409;28;20057;-69
2023/12/19 00:07:22;;;;;;;9.02;5.63;;;5.60;99.90;;;;;;5022513;28;20079;-69
2023/12/19 00:09:49;;;;;;;8.32;5.68;;;5.60;99.90;;;;;;5022503;28;20029;-68
2023/12/19 00:12:14;;;;;;;9.80;5.15;;;5.70;99.90;;;;;;5022158;28;20033;-68
2023/12/19 00:14:40;;;;;;;10.45;5.55;;;5.70;99.90;;;;;;5022523;28;20044;-69
2023/12/19 00:17:05;;;;;;;9.20;5.35;;;5.70;99.90;;;;;;5015825;28;20121;-68
2023/12/19 00:19:31;;;;;;;7.80;5.05;;;5.70;99.90;;;;;;5022167;28;20593;-69
2023/12/19 00:21:57;;;;;;;7.55;5.07;;;5.70;99.90;;;;;;5019762;28;20028;-69
2023/12/19 00:24:22;;;;;;;10.73;5.78;;;5.70;99.90;;;;;;5021624;28;20087;-68
2023/12/19 00:26:48;;;;;;;8.18;5.47;;;5.70;99.90;;;;;;5017082;28;20036;-68
2023/12/19 00:29:13;;;;;;;8.80;5.15;;;5.70;99.90;;;;;;5013688;28;20029;-71
2023/12/19 00:31:39;;;;;;;7.35;5.30;;;5.70;99.90;;;;;;5017314;28;20029;-67
2023/12/19 00:34:04;;;;;;;8.02;5.00;;;5.70;99.90;;;;;;5016066;28;20029;-72
2023/12/19 00:36:30;;;;;;;7.35;4.93;;;5.70;99.90;;;;;;5013103;28;20037;-73
2023/12/19 00:38:55;;;;;;;9.35;5.32;;;5.70;99.90;;;;;;5017072;28;20545;-73
2023/12/19 00:41:21;;;;;;;7.03;4.90;;;5.70;99.90;;;;;;5021958;28;20042;-72
2023/12/19 00:43:46;;;;;;;8.05;4.97;;;5.70;99.90;;;;;;5021918;28;20098;-73
2023/12/19 00:46:12;;;;;;;7.63;4.50;;;5.70;99.70;;;;;;5021713;28;20021;-71
2023/12/19 00:48:38;;;;;;;8.43;5.13;;;5.70;99.60;;;;;;5023730;28;20573;-73
2023/12/19 00:51:10;;;;;;;7.15;4.68;;;5.70;99.90;;;;;;5021437;28;20022;-72
2023/12/19 00:53:36;;;;;;;5.82;4.00;;;5.70;99.70;;;;;;5021739;28;20233;-73
2023/12/19 00:56:01;;;;;;;8.40;4.53;;;5.70;99.70;;;;;;5021871;28;20487;-74
2023/12/19 00:58:27;;;;;;;8.25;4.50;;;5.80;99.60;;;;;;5021160;28;20048;-72
2023/12/19 01:00:52;;;;;;;6.00;4.40;;;5.80;99.30;;;;;;5021668;28;20041;-72
2023/12/19 01:03:17;;;;;;;7.75;4.80;;;5.80;99.00;;;;;;5016238;28;20087;-73
2023/12/19 01:05:43;;;;;;;8.68;4.18;;;5.80;99.30;;;;;;5023364;28;20044;-72
2023/12/19 01:08:09;;;;;;;7.18;5.10;;;5.90;99.20;;;;;;5021465;28;20491;-72
2023/12/19 01:10:34;;;;;;;7.18;3.97;;;5.90;99.00;;;;;;5023320;28;20029;-73
2023/12/19 01:13:00;;;;;;;8.48;5.15;;;5.90;97.60;;;;;;5021475;28;20028;-73
2023/12/19 01:15:25;;;;;;;6.70;4.43;;;5.90;98.10;;;;;;5016931;28;20018;-73
2023/12/19 01:17:51;;;;;;;6.72;4.38;;;5.90;98.10;;;;;;5013155;28;20368;-73
2023/12/19 01:20:17;;;;;;;7.60;4.45;;;5.90;98.10;;;;;;5016763;28;20107;-72
2023/12/19 01:22:42;;;;;;;5.90;3.90;;;6.00;98.20;;;;;;5014951;28;20105;-73
2023/12/19 01:25:08;;;;;;;8.93;4.85;;;6.00;97.90;;;;;;5020956;28;20052;-74
2023/12/19 01:27:33;;;;;;;6.50;4.10;;;6.00;97.90;;;;;;5015192;28;20033;-73
2023/12/19 01:29:58;;;;;;;5.95;4.03;;;6.10;97.50;;;;;;5018663;28;20503;-74
2023/12/19 01:32:24;;;;;;;5.75;4.00;;;6.10;97.50;;;;;;5020693;28;20091;-74
2023/12/19 01:34:49;;;;;;;5.57;4.18;;;6.10;97.50;;;;;;5022658;28;20022;-74
2023/12/19 01:37:15;;;;;;;6.55;4.50;;;6.10;97.00;;;;;;5020953;28;20021;-73
2023/12/19 01:39:40;;;;;;;6.82;3.70;;;6.20;97.00;;;;;;5020815;28;20080;-73
2023/12/19 01:42:06;;;;;;;6.38;3.90;;;6.20;96.40;;;;;;5019143;28;20095;-74
2023/12/19 01:44:31;;;;;;;6.30;4.45;;;6.20;96.20;;;;;;5013993;28;20038;-74
2023/12/19 01:46:57;;;;;;;5.22;4.15;;;6.20;96.60;;;;;;5020323;28;20096;-72
2023/12/19 01:49:22;;;;;;;6.20;3.92;;;6.30;96.00;;;;;;5021636;28;20030;-73
2023/12/19 01:51:48;;;;;;;6.95;4.10;;;6.20;96.30;;;;;;5020700;28;20090;-73
2023/12/19 01:54:15;;;;;;;5.10;3.80;;;6.30;96.00;;;;;;5020363;28;20112;-74
2023/12/19 01:56:41;;;;;;;5.32;3.50;;;6.30;95.90;;;;;;5020459;28;20071;-74
2023/12/19 01:59:08;;;;;;;6.32;4.25;;;6.30;95.80;;;;;;5020636;28;20063;-74
2023/12/19 02:01:34;;;;;;;5.82;4.22;;;6.30;94.90;;;;;;5007653;28;20064;-74
2023/12/19 02:04:01;;;;;;;6.40;4.03;;;6.30;95.60;;;;;;5020681;28;20045;-73
2023/12/19 02:06:27;;;;;;;6.38;4.20;;;6.30;95.20;;;;;;5021246;28;20060;-73
2023/12/19 02:08:52;;;;;;;6.68;3.95;;;6.30;95.40;;;;;;5018370;28;20025;-74
2023/12/19 02:11:18;;;;;;;6.75;3.67;;;6.30;95.70;;;;;;5019997;28;20064;-74
2023/12/19 02:13:44;;;;;;;5.22;3.50;;;6.30;95.20;;;;;;5017770;28;20510;-73
2023/12/19 02:16:10;;;;;;;5.97;3.83;;;6.30;95.30;;;;;;5018473;28;20029;-74
2023/12/19 02:18:36;;;;;;;8.38;4.40;;;6.30;95.40;;;;;;5018428;28;20030;-73
2023/12/19 02:21:04;;;;;;;11.23;3.72;;;6.30;95.60;;;;;;5012037;28;20030;-73
2023/12/19 02:23:29;;;;;;;6.45;3.97;;;6.30;95.30;;;;;;5012192;28;20036;-73
2023/12/19 02:25:55;;;;;;;6.53;3.58;;;6.30;95.10;;;;;;5018688;28;20022;-73
2023/12/19 02:28:21;;;;;;;6.78;4.15;;;6.30;95.00;;;;;;5019129;28;20417;-73
2023/12/19 02:30:46;;;;;;;4.85;3.65;;;6.30;94.50;;;;;;5020031;28;20064;-73
2023/12/19 02:33:12;;;;;;;5.18;3.65;;;6.30;94.40;;;;;;5020151;28;20093;-74
2023/12/19 02:35:37;;;;;;;4.68;3.85;;;6.30;94.70;;;;;;5019779;28;20391;-73
2023/12/19 02:38:03;;;;;;;6.07;4.07;;;6.30;94.50;;;;;;5021893;28;20386;-74
2023/12/19 02:40:29;;;;;;;5.82;3.35;;;6.30;94.60;;;;;;5019789;28;20041;-73
2023/12/19 02:42:54;;;;;;;7.03;4.05;;;6.30;94.30;;;;;;5019659;28;20034;-73
2023/12/19 02:45:20;;;;;;;6.75;3.75;;;6.30;94.00;;;;;;5019947;28;20438;-74
2023/12/19 02:47:45;;;;;;;5.72;3.83;;;6.30;93.90;;;;;;5019694;28;20395;-73
2023/12/19 02:50:11;;;;;;;9.18;4.30;;;6.30;94.30;;;;;;5019914;28;20060;-74
2023/12/19 02:52:36;;;;;;;6.20;3.65;;;6.30;93.60;;;;;;5019701;28;20021;-73
2023/12/19 02:55:02;;;;;;;5.43;3.72;;;6.30;94.00;;;;;;5018128;28;20377;-73
2023/12/19 02:57:28;;;;;;;5.80;3.60;;;6.30;93.70;;;;;;5011814;28;20297;-73
2023/12/19 02:59:53;;;;;;;5.63;3.78;;;6.30;93.70;;;;;;5015287;28;20034;-73
2023/12/19 03:02:18;;;;;;;6.55;4.13;;;6.30;93.40;;;;;;5012268;28;20423;-55
2023/12/19 03:04:44;;;;;;;5.10;3.40;;;6.30;93.50;;;;;;5019022;28;20025;-56
2023/12/19 03:07:10;;;;;;;6.18;3.90;;;6.30;93.60;;;;;;5017804;28;20029;-56
2023/12/19 03:09:36;;;;;;;3.97;2.95;;;6.20;93.60;;;;;;5017303;28;20326;-56
2023/12/19 03:12:03;;;;;;;5.88;4.13;;;6.20;93.40;;;;;;5019140;28;20029;-73
2023/12/19 03:14:34;;;;;;;6.32;3.70;;;6.20;93.90;;;;;;5016702;28;20176;-73
2023/12/19 03:17:03;;;;;;;5.97;3.85;;;6.20;93.90;;;;;;5017812;28;20067;-73
2023/12/19 03:19:29;;;;;;;5.95;4.20;;;6.20;93.90;;;;;;5023289;28;20045;-73
2023/12/19 03:21:55;;;;;;;5.95;3.85;;;6.20;94.10;;;;;;5023265;28;20029;-73
2023/12/19 03:24:22;;;;;;;7.95;4.50;;;6.30;94.10;;;;;;5023302;28;20033;-73
2023/12/19 03:26:47;;;;;;;5.47;3.72;;;6.30;94.10;;;;;;5023569;28;20109;-72
2023/12/19 03:29:13;;;;;;;8.55;4.30;;;6.30;94.30;;;;;;5024805;28;20121;-74
2023/12/19 03:31:38;;;;;;;6.60;3.70;;;6.40;94.40;;;;;;5020046;28;20068;-73
2023/12/19 03:34:04;;;;;;;6.85;4.13;;;6.40;94.30;;;;;;5022116;28;20018;-73
2023/12/19 03:36:29;;;;;;;7.10;3.42;;;6.40;94.50;;;;;;5022992;28;20395;-73
2023/12/19 03:38:55;;;;;;;7.68;4.13;;;6.50;94.60;;;;;;5023058;28;20036;-73
2023/12/19 03:41:20;;;;;;;6.60;3.58;;;6.50;94.70;;;;;;5024647;28;20030;-73
2023/12/19 03:43:46;;;;;;;6.63;4.38;;;6.50;94.80;;;;;;5022480;28;20033;-73
2023/12/19 03:46:12;;;;;;;5.60;3.92;;;6.50;94.90;;;;;;5022808;28;20045;-73
2023/12/19 03:48:38;;;;;;;7.07;4.32;;;6.50;95.10;;;;;;5022871;28;20059;-72
2023/12/19 03:51:04;;;;;;;7.43;4.85;;;6.50;95.20;;;;;;5018050;28;20022;-72
2023/12/19 03:53:30;;;;;;;5.50;4.40;;;6.50;95.30;;;;;;5014373;28;20033;-72
2023/12/19 03:55:56;;;;;;;8.55;4.80;;;6.60;95.20;;;;;;5020726;28;20021;-73
2023/12/19 03:58:22;;;;;;;7.93;5.00;;;6.60;95.20;;;;;;5016180;28;20029;-73
2023/12/19 04:00:48;;;;;;;7.57;4.95;;;6.60;95.40;;;;;;5015688;28;20109;-73
2023/12/19 04:03:13;;;;;;;6.45;4.95;;;6.60;95.50;;;;;;5015888;28;20399;-73
2023/12/19 04:05:39;;;;;;;7.10;4.50;;;6.60;95.40;;;;;;5014224;28;20037;-72
2023/12/19 04:08:05;;;;;;;6.82;4.35;;;6.60;95.50;;;;;;5013371;28;20032;-72
2023/12/19 04:10:30;;;;;;;8.68;5.25;;;6.60;95.60;;;;;;5013202;28;20092;-73
2023/12/19 04:12:56;;;;;;;7.88;4.80;;;6.60;95.40;;;;;;5017238;28;20492;-73
2023/12/19 04:15:22;;;;;;;6.82;4.65;;;6.60;95.60;;;;;;5018768;28;20469;-74
2023/12/19 04:17:47;;;;;;;7.80;4.40;;;6.60;95.90;;;;;;5022658;28;20053;-72
2023/12/19 04:20:13;;;;;;;8.48;4.97;;;6.70;96.00;;;;;;5022341;28;20557;-73
2023/12/19 04:22:38;;;;;;;8.73;5.15;;;6.70;96.10;;;;;;5021866;28;20044;-72
2023/12/19 04:25:05;;;;;;;7.05;4.72;;;6.70;96.10;;;;;;5019944;28;20031;-72
2023/12/19 04:27:30;;;;;;;7.28;4.78;;;6.70;96.10;;;;;;5021152;28;20280;-72
2023/12/19 04:29:56;;;;;;;7.95;4.68;;;6.70;96.20;;;;;;5022255;28;20027;-73
2023/12/19 04:32:22;;;;;;;5.93;4.38;;;6.70;96.40;;;;;;5022098;28;20017;-73
2023/12/19 04:34:48;;;;;;;7.20;4.63;;;6.70;96.40;;;;;;5022213;28;20030;-73
2023/12/19 04:37:13;;;;;;;8.52;5.18;;;6.70;96.50;;;;;;5022017;28;20052;-72
2023/12/19 04:39:39;;;;;;;8.43;4.85;;;6.80;96.50;;;;;;5023796;28;20387;-73
2023/12/19 04:42:07;;;;;;;6.55;4.10;;;6.70;96.50;;;;;;5018687;28;20392;-73
2023/12/19 04:44:35;;;;;;;7.53;4.78;;;6.70;96.60;;;;;;5021489;28;20112;-74
2023/12/19 04:47:01;;;;;;;6.78;4.22;;;6.80;96.70;;;;;;5015339;28;20017;-73
2023/12/19 04:49:26;;;;;;;6.45;4.40;;;6.70;96.70;;;;;;5016054;28;20517;-73
2023/12/19 04:51:52;;;;;;;6.95;4.22;;;6.70;96.80;;;;;;5017869;28;20030;-72
2023/12/19 04:54:17;;;;;;;8.82;4.45;;;6.80;97.00;;;;;;5017814;28;20048;-70
2023/12/19 04:56:43;;;;;;;9.65;5.50;;;6.80;96.90;;;;;;5015494;28;20053;-73
2023/12/19 04:59:08;;;;;;;8.93;4.85;;;6.80;97.10;;;;;;5014975;28;20034;-73
2023/12/19 05:01:34;;;;;;;8.75;4.78;;;6.80;97.10;;;;;;5008251;28;20103;-74
2023/12/19 05:03:59;;;;;;;6.25;4.85;;;6.80;97.20;;;;;;5020259;28;20024;-73
2023/12/19 05:06:25;;;;;;;7.97;4.95;;;6.80;97.70;;;;;;5021439;28;20041;-72
2023/12/19 05:08:51;;;;;;;8.98;5.15;;;6.80;97.60;;;;;;5023457;28;20443;-73
2023/12/19 05:11:16;;;;;;;8.90;5.22;;;6.80;97.80;;;;;;5021639;28;20100;-73
2023/12/19 05:13:42;;;;;;;10.43;5.88;;;6.80;97.90;;;;;;5021188;28;20033;-73
2023/12/19 05:16:14;;;;;;;9.43;5.95;;;6.80;98.00;;;;;;5021624;28;20526;-73
2023/12/19 05:18:41;;;;;;;8.88;5.85;;;6.90;98.10;;;;;;5019987;28;20372;-73
2023/12/19 05:21:10;;;;;;;9.55;5.40;;;6.90;98.10;;;;;;5021423;28;20168;-76
2023/12/19 05:23:36;;;;;;;8.95;5.72;;;6.90;98.10;;;;;;5014967;28;20035;-73
2023/12/19 05:26:03;;;;;;;9.48;5.15;;;6.90;98.10;;;;;;5012673;28;20025;-72
2023/12/19 05:28:29;;;;;;;9.38;5.68;;;6.90;98.00;;;;;;5012791;28;20037;-72
2023/12/19 05:30:56;;;;;;;8.13;5.07;;;6.90;98.00;;;;;;5018832;28;20048;-73
2023/12/19 05:33:29;;;;;;;9.02;5.15;;;6.90;97.90;;;;;;5021769;28;20025;-73
2023/12/19 05:35:55;;;;;;;8.25;5.10;;;6.90;97.80;;;;;;5021267;28;20025;-72
2023/12/19 05:38:21;;;;;;;6.90;4.57;;;6.90;97.80;;;;;;5020886;28;20052;-72
2023/12/19 05:40:47;;;;;;;7.45;5.03;;;7.00;97.80;;;;;;5021085;28;20037;-73
2023/12/19 05:43:13;;;;;;;7.30;4.00;;;7.00;97.70;;;;;;5020801;28;20018;-73
2023/12/19 05:45:39;;;;;;;6.65;4.20;;;7.00;97.60;;;;;;5020681;28;20415;-72
2023/12/19 05:48:05;;;;;;;7.57;4.25;;;6.90;97.50;;;;;;5020921;28;20022;-72
2023/12/19 05:50:31;;;;;;;7.18;4.20;;;7.00;97.40;;;;;;5022358;28;20029;-73
2023/12/19 05:52:56;;;;;;;6.85;4.25;;;6.90;96.70;;;;;;5021078;28;20032;-73
2023/12/19 05:55:22;;;;;;;41.95;19.55;;;6.90;96.40;;;;;;5020608;28;20396;-73
2023/12/19 05:57:47;;;;;;;15.45;9.57;;;6.90;95.70;;;;;;5020358;28;20180;-72
2023/12/19 06:00:14;;;;;;;16.33;8.95;;;6.90;95.50;;;;;;5020930;28;20038;-72
2023/12/19 06:02:39;;;;;;;17.92;11.18;;;6.90;95.60;;;;;;5015666;28;20042;-73
2023/12/19 06:05:07;;;;;;;10.48;6.57;;;6.80;95.10;;;;;;5018402;28;20025;-73
2023/12/19 06:07:36;;;;;;;11.00;6.38;;;6.80;95.20;;;;;;5019447;28;20400;-73
2023/12/19 06:10:08;;;;;;;8.20;5.72;;;6.80;95.20;;;;;;5016426;28;20449;-72
2023/12/19 06:12:34;;;;;;;6.93;4.78;;;6.80;95.00;;;;;;5016055;28;20113;-72
2023/12/19 06:14:59;;;;;;;7.50;5.10;;;6.80;95.10;;;;;;5018084;28;20109;-71
2023/12/19 06:17:25;;;;;;;9.93;5.90;;;6.80;95.00;;;;;;5015375;28;20068;-71
2023/12/19 06:19:50;;;;;;;13.68;6.63;;;6.80;94.70;;;;;;5017667;28;21083;-74
2023/12/19 06:22:16;;;;;;;8.20;5.40;;;6.80;95.10;;;;;;5014384;28;20227;-77
2023/12/19 06:24:41;;;;;;;9.80;4.90;;;6.80;94.90;;;;;;5016878;28;20415;-71
2023/12/19 06:27:07;;;;;;;8.10;5.68;;;6.80;94.60;;;;;;5015805;28;20021;-71
2023/12/19 06:29:32;;;;;;;8.18;5.00;;;6.80;94.70;;;;;;5016982;28;20030;-72
2023/12/19 06:31:58;;;;;;;7.07;4.47;;;6.80;94.40;;;;;;5009425;28;20027;-72
2023/12/19 06:34:23;;;;;;;9.63;7.22;;;6.80;94.20;;;;;;5014625;28;20643;-54
2023/12/19 06:36:48;;;;;;;10.35;7.22;;;6.80;94.20;;;;;;5016072;28;20598;-55
2023/12/19 06:39:15;;;;;;;15.38;10.15;;;6.80;94.10;;;;;;5014502;28;20034;-55
2023/12/19 06:41:40;;;;;;;8.43;6.68;;;6.80;93.80;;;;;;5015162;28;20276;-54
2023/12/19 06:44:06;;;;;;;8.93;7.15;;;6.90;93.60;;;;;;5015842;28;20021;-52
2023/12/19 06:46:31;;;;;;;7.93;6.07;;;6.80;93.50;;;;;;5015308;28;20696;-54
2023/12/19 06:48:57;;;;;;;8.52;5.57;;;6.90;93.60;;;;;;5012468;28;20033;-54
2023/12/19 06:51:24;;;;;;;9.00;5.78;;;6.90;93.20;;;;;;5013118;28;20025;-53
2023/12/19 06:53:51;;;;;;;7.72;5.03;;;6.90;93.20;;;;;;5013637;28;20025;-52
2023/12/19 06:56:16;;;;;;;9.15;6.05;;;6.90;93.30;;;;;;5014731;28;20060;-54
2023/12/19 06:58:42;;;;;;;9.45;5.20;;;6.90;93.20;;;;;;5017658;28;20042;-54
2023/12/19 07:01:08;;;;;;;9.60;4.90;;;6.90;93.20;;;;;;5021946;28;20380;-55
2023/12/19 07:03:33;;;;;;;8.02;5.32;;;6.90;93.20;;;;;;5014112;28;20108;-53
2023/12/19 07:05:59;;;;;;;7.43;4.88;;;6.80;93.20;;;;;;5018129;28;20026;-54
2023/12/19 07:08:25;;;;;;;7.50;5.45;;;6.90;93.40;;;;;;5018415;28;20167;-54
2023/12/19 07:10:52;;;;;;;9.02;5.55;;;6.90;93.30;;;;;;5018596;28;20034;-72
2023/12/19 07:13:17;;;;;;;11.88;6.57;;;6.90;93.50;;;;;;5015425;28;20097;-71
2023/12/19 07:15:43;;;;;;;9.13;6.07;;;6.90;93.40;;;;;;5019585;28;20152;-75
2023/12/19 07:18:08;;;;;;;8.40;5.40;;;6.90;93.40;;;;;;5017346;28;20040;-72
2023/12/19 07:20:34;;;;;;;8.85;5.80;;;6.90;93.40;;;;;;5018384;28;20503;-72
2023/12/19 07:22:59;;;;;;;8.23;5.30;;;6.90;93.30;;;;;;5019598;28;20037;-71
2023/12/19 07:25:26;;;;;;;8.75;5.72;;;7.00;93.60;;;;;;5018422;28;20717;-72
2023/12/19 07:27:51;;;;;;;9.25;5.72;;;7.00;93.60;;;;;;5020781;28;20056;-72
2023/12/19 07:30:17;;;;;;;7.95;5.55;;;6.90;93.60;;;;;;5017208;28;20033;-71
2023/12/19 07:32:42;;;;;;;7.90;5.28;;;7.00;93.70;;;;;;5019555;28;20025;-72
2023/12/19 07:35:09;;;;;;;8.82;5.75;;;7.00;93.80;;;;;;5019269;28;20454;-71
2023/12/19 07:37:36;;;;;;;8.50;5.43;;;7.00;93.90;;;;;;5019352;28;20439;-72
2023/12/19 07:40:02;;;;;;;9.35;5.25;;;7.00;94.00;;;;;;5019484;28;20608;-71
2023/12/19 07:42:27;;;;;;;9.93;5.78;;;7.00;94.00;;;;;;5018889;28;20040;-72
2023/12/19 07:44:53;;;;;;;7.32;5.05;;;7.10;94.20;;;;;;5019659;28;20026;-71
2023/12/19 07:47:18;;;;;;;11.27;5.65;;;7.10;94.20;;;;;;5020952;28;20041;-71
2023/12/19 07:49:44;;;;;;;7.25;5.30;;;7.10;94.20;;;;;;5022700;28;20037;-72
2023/12/19 07:52:09;;;;;;;8.75;5.07;;;7.10;94.30;;;;;;5022853;28;20025;-72
2023/12/19 07:54:36;;;;;;;7.45;5.07;;;7.10;94.40;;;;;;5022360;28;20057;-71
2023/12/19 07:57:01;;;;;;;7.15;4.78;;;7.10;94.60;;;;;;5024471;28;20033;-71
2023/12/19 07:59:27;;;;;;;9.20;5.72;;;7.10;95.00;;;;;;5024208;28;20055;-71
2023/12/19 08:01:53;;;;;;;12.05;6.15;;;7.10;95.40;;;;;;5019659;28;20040;-73
2023/12/19 08:04:18;;;;;;;9.18;6.32;;;7.00;96.10;;;;;;5022434;28;20176;-71
2023/12/19 08:06:44;;;;;;;13.68;6.90;;;7.00;96.80;;;;;;5022396;28;20029;-72
2023/12/19 08:09:11;;;;;;;11.88;6.85;;;6.90;97.80;;;;;;5019486;28;20021;-72
2023/12/19 08:11:37;;;;;;;10.43;6.40;;;6.90;98.40;;;;;;5022277;28;20034;-72
2023/12/19 08:14:02;;;;;;;10.07;6.50;;;6.90;99.20;;;;;;5018210;28;20116;-71
2023/12/19 08:16:28;;;;;;;11.52;6.82;;;6.80;99.90;;;;;;5022988;28;20559;-71
2023/12/19 08:18:53;;;;;;;9.18;6.07;;;6.80;99.90;;;;;;5022227;28;20025;-71
2023/12/19 08:21:19;;;;;;;11.32;6.50;;;6.80;99.90;;;;;;5022065;28;20528;-70
2023/12/19 08:23:46;;;;;;;9.70;5.78;;;6.70;99.90;;;;;;5022392;28;20034;-72
2023/12/19 08:26:12;;;;;;;11.73;7.10;;;6.70;99.90;;;;;;5022176;28;20014;-71
2023/12/19 08:28:38;;;;;;;13.05;7.00;;;6.70;99.90;;;;;;5021989;28;20029;-72
2023/12/19 08:31:03;;;;;;;10.40;6.60;;;6.70;99.90;;;;;;5021981;28;20372;-72
2023/12/19 08:33:29;;;;;;;10.55;6.55;;;6.60;99.90;;;;;;5020440;28;20713;-71
2023/12/19 08:35:54;;;;;;;12.27;7.00;;;6.60;99.90;;;;;;5022106;28;20643;-71
2023/12/19 08:38:20;;;;;;;10.32;6.13;;;6.60;99.90;;;;;;5021862;28;20029;-71
2023/12/19 08:40:45;;;;;;;10.77;6.32;;;6.60;99.90;;;;;;5021672;28;20562;-71
2023/12/19 08:43:11;;;;;;;10.02;6.07;;;6.70;99.90;;;;;;5021894;28;20029;-71
2023/12/19 08:45:37;;;;;;;11.38;6.68;;;6.70;99.90;;;;;;5021779;28;20068;-71
2023/12/19 08:48:04;;;;;;;11.48;6.53;;;6.70;99.90;;;;;;5021920;28;20033;-71
2023/12/19 08:50:30;;;;;;;12.65;7.70;;;6.70;99.90;;;;;;5023513;28;20045;-71
2023/12/19 08:52:56;;;;;;;11.93;8.02;;;6.70;99.90;;;;;;5021641;28;20527;-71
2023/12/19 08:55:22;;;;;;;13.48;7.38;;;6.70;99.90;;;;;;5021574;28;20120;-71
2023/12/19 08:57:48;;;;;;;13.00;6.20;;;6.60;99.90;;;;;;5021352;28;20499;-71
2023/12/19 09:00:17;;;;;;;9.13;6.68;;;6.60;99.90;;;;;;5020425;28;20497;-71
2023/12/19 09:02:46;;;;;;;11.27;6.45;;;6.60;99.90;;;;;;5018026;28;20060;-72
2023/12/19 09:05:12;;;;;;;10.40;6.15;;;6.60;99.90;;;;;;5021625;28;20025;-71
2023/12/19 09:07:39;;;;;;;10.82;7.50;;;6.50;99.90;;;;;;5021279;28;20045;-70
2023/12/19 09:10:05;;;;;;;12.60;6.57;;;6.50;99.90;;;;;;5023128;28;20029;-71
2023/12/19 09:12:32;;;;;;;11.98;7.22;;;6.50;99.90;;;;;;5021326;28;20447;-71
2023/12/19 09:14:57;;;;;;;11.25;7.15;;;6.50;99.90;;;;;;5021247;28;20025;-71
2023/12/19 09:17:23;;;;;;;10.48;6.82;;;6.50;99.90;;;;;;5021151;28;20056;-71
2023/12/19 09:19:48;;;;;;;12.85;7.40;;;6.50;99.90;;;;;;5021058;28;20057;-71
2023/12/19 09:22:14;;;;;;;14.57;7.85;;;6.50;99.90;;;;;;5021092;28;20495;-71
2023/12/19 09:24:39;;;;;;;14.90;7.63;;;6.50;99.90;;;;;;5020856;28;20109;-71
2023/12/19 09:27:05;;;;;;;13.23;7.57;;;6.50;99.90;;;;;;5017986;28;20554;-72
2023/12/19 09:29:32;;;;;;;12.57;6.88;;;6.50;99.90;;;;;;5020978;28;20037;-72
2023/12/19 09:32:00;;;;;;;12.75;6.65;;;6.50;99.90;;;;;;5019550;28;20021;-72
2023/12/19 09:34:26;;;;;;;11.93;7.32;;;6.60;99.90;;;;;;5020852;28;20467;-71
2023/12/19 09:36:51;;;;;;;10.50;7.13;;;6.60;99.90;;;;;;5020848;28;20053;-71
2023/12/19 09:39:17;;;;;;;15.43;8.40;;;6.60;99.90;;;;;;5020829;28;20108;-71
2023/12/19 09:41:42;;;;;;;11.93;7.50;;;6.70;99.90;;;;;;5016496;28;20506;-72
2023/12/19 09:44:08;;;;;;;10.32;6.57;;;6.70;99.90;;;;;;5022714;28;20024;-72
2023/12/19 09:46:35;;;;;;;12.40;7.10;;;6.70;99.90;;;;;;5019218;28;20585;-71
2023/12/19 09:49:02;;;;;;;12.45;7.28;;;6.70;99.90;;;;;;5020557;28;20029;-72
2023/12/19 09:51:30;;;;;;;16.38;9.25;;;6.70;99.90;;;;;;5020520;28;20065;-71
2023/12/19 09:53:56;;;;;;;13.25;8.05;;;6.70;99.90;;;;;;5019198;28;20399;-72
2023/12/19 09:56:25;;;;;;;12.20;7.95;;;6.80;99.90;;;;;;5020293;28;20025;-71
2023/12/19 09:58:51;;;;;;;12.68;7.38;;;6.80;99.90;;;;;;5020546;28;20092;-72
2023/12/19 10:01:19;;;;;;;12.90;7.45;;;6.80;99.90;;;;;;5017592;28;20036;-72
2023/12/19 10:03:46;;;;;;;14.10;8.45;;;6.80;99.90;;;;;;5022192;28;20029;-72
2023/12/19 10:06:11;;;;;;;14.85;7.85;;;6.80;99.90;;;;;;5020416;28;20018;-72
2023/12/19 10:08:43;;;;;;;10.88;7.43;;;6.80;99.90;;;;;;5020348;28;20026;-71
2023/12/19 10:11:15;;;;;;;13.88;8.15;;;6.80;99.90;;;;;;5019978;28;20010;-72
2023/12/19 10:13:40;;;;;;;11.80;7.55;;;6.80;99.90;;;;;;5020349;28;20033;-72
2023/12/19 10:16:08;;;;;;;11.18;8.02;;;6.80;99.90;;;;;;5020056;28;20395;-72
2023/12/19 10:18:34;;;;;;;14.77;8.65;;;6.80;99.90;;;;;;5020057;28;20017;-71
2023/12/19 10:21:11;;;;;;;12.77;6.88;;;6.80;99.90;;;;;;5020309;28;20025;-72
2023/12/19 10:23:37;;;;;;;12.00;7.55;;;6.80;99.90;;;;;;5018712;28;20034;-71
2023/12/19 10:26:04;;;;;;;14.32;8.95;;;6.80;99.90;;;;;;5018661;28;20018;-72
2023/12/19 10:28:30;;;;;;;14.80;7.75;;;6.80;99.90;;;;;;5019858;28;20075;-71
2023/12/19 10:31:11;;;;;;;14.70;8.35;;;6.70;99.90;;;;;;5021894;28;20025;-71
2023/12/19 10:33:48;;;;;;;15.80;9.00;;;6.70;99.90;;;;;;5018322;28;20021;-72
2023/12/19 10:36:27;;;;;;;10.82;6.97;;;6.70;99.90;;;;;;5019807;28;20064;-72
2023/12/19 10:38:58;;;;;;;10.43;6.82;;;6.70;99.90;;;;;;5017742;28;20080;-72
2023/12/19 10:41:31;;;;;;;14.13;7.38;;;6.70;99.90;;;;;;5017444;28;20506;-72
2023/12/19 10:43:58;;;;;;;16.55;8.70;;;6.70;99.90;;;;;;5019758;28;20099;-73
2023/12/19 10:46:27;;;;;;;14.80;8.95;;;6.70;99.90;;;;;;5019825;28;20025;-72
2023/12/19 10:48:54;;;;;;;12.88;8.25;;;6.70;99.90;;;;;;5019953;28;20030;-72
2023/12/19 10:51:26;;;;;;;13.75;8.82;;;6.70;99.90;;;;;;5019624;28;20080;-72
2023/12/19 10:53:58;;;;;;;14.75;8.07;;;6.70;99.90;;;;;;5019703;28;20030;-72
2023/12/19 10:56:24;;;;;;;15.70;10.93;;;6.70;99.90;;;;;;5019591;28;20029;-72
2023/12/19 10:58:58;;;;;;;16.83;11.68;;;6.70;99.90;;;;;;5019579;28;20034;-72
2023/12/19 11:01:26;;;;;;;16.90;9.90;;;6.70;99.90;;;;;;5013870;28;20059;-71
2023/12/19 11:03:59;;;;;;;16.48;9.13;;;6.70;99.90;;;;;;5019663;28;20029;-72
2023/12/19 11:06:29;;;;;;;12.73;8.95;;;6.80;99.90;;;;;;5019694;28;20041;-71
2023/12/19 11:09:03;;;;;;;17.17;9.52;;;6.80;99.90;;;;;;5018731;28;20045;-72
2023/12/19 11:11:37;;;;;;;14.80;8.77;;;6.80;99.90;;;;;;5019235;28;20083;-63
2023/12/19 11:14:03;;;;;;;15.63;9.70;;;6.80;99.90;;;;;;5017366;28;20697;-63
2023/12/19 11:16:48;;;;;;;17.40;10.57;;;6.70;99.90;;;;;;5019396;28;20052;-63
2023/12/19 11:19:22;;;;;;;16.42;10.57;;;6.70;99.90;;;;;;5016155;28;20025;-62
2023/12/19 11:22:07;;;;;;;16.70;10.63;;;6.80;99.90;;;;;;5020437;28;20028;-63
2023/12/19 11:24:55;;;;;;;15.27;9.37;;;6.80;99.90;;;;;;5017838;28;20025;-63
2023/12/19 11:27:35;;;;;;;17.00;9.68;;;6.80;99.90;;;;;;5020863;28;20483;-63
2023/12/19 11:30:01;;;;;;;15.45;10.23;;;6.90;99.90;;;;;;5020593;28;20528;-63
2023/12/19 11:32:26;;;;;;;16.27;9.52;;;6.90;99.90;;;;;;5020493;28;20088;-63
2023/12/19 11:34:52;;;;;;;14.48;8.70;;;6.90;99.90;;;;;;5021660;28;20020;-63
2023/12/19 11:37:21;;;;;;;16.83;9.23;;;6.90;99.90;;;;;;5022863;28;20036;-63
2023/12/19 11:39:47;;;;;;;15.18;9.52;;;6.90;99.90;;;;;;5020860;28;20376;-63
2023/12/19 11:42:48;;;;;;;18.33;10.90;;;6.90;99.90;;;;;;5020723;28;20041;-64
2023/12/19 11:45:17;;;;;;;13.48;8.43;;;6.90;99.90;;;;;;4956129;28;20035;-63
2023/12/19 11:47:43;;;;;;;16.52;9.82;;;6.90;99.90;;;;;;5012719;28;20033;-63
2023/12/19 11:50:10;;;;;;;14.95;9.73;;;6.90;99.90;;;;;;5022958;28;20034;-63
2023/12/19 11:52:36;;;;;;;16.75;10.43;;;6.90;99.90;;;;;;5022803;28;20034;-63
2023/12/19 11:55:03;;;;;;;14.57;8.57;;;6.90;99.90;;;;;;5022609;28;20017;-63
2023/12/19 11:57:29;;;;;;;15.95;10.07;;;6.80;99.90;;;;;;5022343;28;20043;-63
2023/12/19 11:59:55;;;;;;;16.65;10.95;;;6.80;99.90;;;;;;5022687;28;20021;-63
2023/12/19 12:02:34;;;;;;;15.57;10.57;;;6.80;99.90;;;;;;5019487;28;20091;-63
2023/12/19 12:05:02;;;;;;;16.92;10.40;;;6.80;99.90;;;;;;5020169;28;20032;-63
2023/12/19 12:07:29;;;;;;;17.23;9.35;;;6.80;99.90;;;;;;5018514;28;20097;-63
2023/12/19 12:10:00;;;;;;;16.20;10.55;;;6.80;99.90;;;;;;5019893;28;20530;-63
2023/12/19 12:12:36;;;;;;;18.08;10.80;;;6.80;99.90;;;;;;5019440;28;20541;-63
2023/12/19 12:15:11;;;;;;;18.02;9.77;;;6.80;99.90;;;;;;5022547;28;20060;-63
2023/12/19 12:17:36;;;;;;;15.82;10.60;;;6.80;99.90;;;;;;5020952;28;20046;-63
2023/12/19 12:20:03;;;;;;;14.75;9.43;;;6.70;99.90;;;;;;5022199;28;20025;-63
2023/12/19 12:22:30;;;;;;;19.10;9.68;;;6.70;99.90;;;;;;5022004;28;20053;-63
2023/12/19 12:24:56;;;;;;;15.88;9.30;;;6.70;99.90;;;;;;5020023;28;20036;-63
2023/12/19 12:27:22;;;;;;;15.38;10.20;;;6.70;99.90;;;;;;5022093;28;20030;-64
2023/12/19 12:29:47;;;;;;;17.60;10.23;;;6.70;99.90;;;;;;5023900;28;20030;-64
2023/12/19 12:32:14;;;;;;;16.00;9.75;;;6.70;99.90;;;;;;5021624;28;20033;-65
2023/12/19 12:34:39;;;;;;;17.88;10.07;;;6.70;99.90;;;;;;5022430;28;20026;-64
2023/12/19 12:37:05;;;;;;;16.02;10.02;;;6.60;99.90;;;;;;5017915;28;20097;-64
2023/12/19 12:39:31;;;;;;;19.65;11.13;;;6.70;99.90;;;;;;5021898;28;20036;-54
2023/12/19 12:42:01;;;;;;;16.73;11.23;;;6.70;99.90;;;;;;5023142;28;20034;-72
2023/12/19 12:44:26;;;;;;;17.02;10.07;;;6.60;99.90;;;;;;5015960;28;20034;-71
2023/12/19 12:46:52;;;;;;;14.35;9.88;;;6.60;99.90;;;;;;5019497;28;20097;-72
2023/12/19 12:49:20;;;;;;;17.67;10.32;;;6.60;99.90;;;;;;5021678;28;20095;-72